Sant Hilari Sacalm





Hora UTC 08:20
Temperatura 7.0 ºC
Sòl 15 cm -11.7 ºC
Humitat 76.0 %
Pressió 1022.1 hPa
Pluja 0.0 mm
Velocitat vent 10.3 km/h
Direcció vent NW
Radiació solar 282.5 W/m²

Dades diàries 2020-02-20



Hora UTC (hivern +1h; estiu +2h)
Temperatura (ºC) Humitat (%) Pressió (hPa) Velocitat vent (km/h) Precipitació (mm) Radiació solar (W/m²)
Hora UTC Aire Sòl 15 cm Humitat Pressió Vel. Dir. Vel. Max Dir. Intent. màx 5 min. Rad. Sol.
00:05 3.6 -13.6 90.7 1024.4 0.0 NNE 0.0 SW 0.0 0.1
00:10 3.6 -13.1 90.6 1024.4 0.2 WSW 3.4 WSW 0.0 0.1
00:15 3.6 -13.4 90.4 1024.4 0.6 SSW 3.4 SW 0.0 0.1
00:20 3.6 -13.3 90.5 1024.3 0.7 SW 3.4 SSW 0.0 0.1
00:25 3.6 -13.2 90.8 1024.2 0.5 SW 3.4 SW 0.0 0.1
00:30 3.6 -12.9 91.2 1024.2 2.3 WSW 6.1 WSW 0.0 0.1
00:35 3.5 -12.8 91.6 1024.1 0.8 WSW 3.4 WSW 0.0 0.1
00:40 3.5 -13.0 91.8 1024.1 0.0 NNE 0.0 WSW 0.0 0.1
00:45 3.5 -13.1 92.2 1024.0 0.0 NNE 0.0 WSW 0.0 0.1
00:50 3.6 -12.6 92.7 1024.0 0.1 WSW 3.4 WSW 0.0 0.1
00:55 3.8 -12.5 92.7 1024.0 0.0 NNE 0.0 SSW 0.0 0.1
01:00 4.0 -12.6 93.7 1024.0 0.0 NNE 0.0 SSW 0.0 0.1
01:05 4.0 -12.5 92.6 1023.9 0.1 SW 3.4 SW 0.0 0.1
01:10 4.0 -12.7 92.5 1023.9 3.0 W 6.1 W 0.0 0.1
01:15 4.2 -12.5 93.2 1023.9 1.7 W 6.1 W 0.0 0.1
01:20 4.2 -12.1 92.3 1023.8 0.0 WNW 3.4 WNW 0.0 0.1
01:25 4.3 -11.5 92.4 1023.7 0.2 W 3.4 W 0.0 0.1
01:30 4.4 -11.4 92.6 1023.8 1.6 W 6.1 WNW 0.0 0.1
01:35 4.5 -11.2 92.7 1023.7 1.0 WNW 8.8 WNW 0.0 0.1
01:40 4.5 -11.6 92.4 1023.6 0.1 S 3.4 S 0.0 0.1
01:45 4.6 -11.2 93.6 1023.5 2.8 W 6.1 WSW 0.0 0.1
01:50 4.8 -11.4 94.9 1023.5 3.4 W 6.1 WNW 0.0 0.1
01:55 4.8 -11.4 95.2 1023.4 3.3 WNW 6.1 W 0.0 0.1
02:00 4.5 -11.9 95.0 1023.3 1.8 WNW 6.1 W 0.0 0.1
02:05 4.3 -12.0 95.3 1023.3 3.0 WNW 6.1 WNW 0.0 0.1
02:10 4.3 -11.9 96.5 1023.2 4.3 W 8.8 W 0.0 0.1
02:15 4.2 -11.8 96.6 1023.1 4.2 WNW 8.8 WNW 0.0 0.1
02:20 4.2 -12.2 96.8 1023.1 6.2 WNW 11.5 WNW 0.0 0.1
02:25 4.3 -12.3 97.1 1023.1 7.3 WNW 11.5 NW 0.0 0.1
02:30 4.2 -11.9 97.0 1023.1 7.4 WNW 11.5 WNW 0.0 0.1
02:35 4.2 -11.8 97.0 1023.0 6.0 WNW 11.5 WNW 0.0 0.1
02:40 4.0 -11.8 97.0 1023.0 3.1 WNW 8.8 WNW 0.0 0.1
02:45 3.8 -11.9 97.2 1023.0 5.2 WNW 8.8 W 0.0 0.1
02:50 3.7 -12.0 97.4 1023.0 4.2 WNW 8.8 WNW 0.0 0.1
02:55 3.6 -11.7 97.6 1022.9 4.3 W 6.1 WNW 0.0 0.1
03:00 3.5 -12.0 98.0 1022.8 4.8 W 8.8 WNW 0.0 0.1
03:05 3.5 -11.9 98.1 1022.8 2.3 WSW 6.1 W 0.0 0.1
03:10 3.4 -12.3 98.3 1022.7 3.8 WSW 6.1 SW 0.0 0.1
03:15 3.3 -12.5 98.3 1022.6 3.7 WSW 6.1 W 0.0 0.1
03:20 3.2 -12.0 98.4 1022.6 2.5 SW 6.1 WSW 0.0 0.1
03:25 3.1 -12.7 98.5 1022.5 2.0 SW 6.1 SSW 0.0 0.1
03:30 3.0 -12.7 98.4 1022.5 3.1 WSW 6.1 SW 0.0 0.1
03:35 2.8 -12.8 98.5 1022.5 0.7 W 6.1 W 0.0 0.1
03:40 2.7 -13.0 98.6 1022.4 1.5 SW 3.4 WSW 0.0 0.1
03:45 2.7 -13.6 98.8 1022.4 4.6 W 8.8 WSW 0.0 0.1
03:50 2.6 -14.2 98.7 1022.4 5.1 WSW 8.8 WSW 0.0 0.1
03:55 2.5 -12.8 98.8 1022.3 4.7 W 8.8 WSW 0.0 0.1
04:00 2.7 -12.5 99.4 1022.3 3.7 W 8.8 W 0.0 0.1
04:05 2.9 -13.0 99.5 1022.3 4.5 W 8.8 W 0.0 0.1
04:10 3.0 -12.8 99.2 1022.2 2.8 SW 6.1 WSW 0.0 0.1
04:15 2.6 -13.4 98.7 1022.2 2.2 SW 6.1 SW 0.0 0.1
04:20 2.5 -13.2 98.7 1022.2 1.0 SSW 6.1 SW 0.0 0.1
04:25 2.4 -13.1 98.8 1022.2 1.2 W 6.1 W 0.0 0.1
04:30 2.4 -13.2 99.0 1022.2 2.4 WSW 6.1 SW 0.0 0.1
04:35 2.5 -13.4 99.1 1022.2 5.2 W 8.8 W 0.0 0.2
04:40 2.4 -13.6 98.9 1022.2 4.6 W 8.8 W 0.0 0.1
04:45 2.3 -13.7 98.9 1022.2 4.6 WNW 8.8 WNW 0.0 0.1
04:50 2.6 -13.0 99.6 1022.1 2.3 WNW 8.8 WNW 0.0 0.1
04:55 2.7 -12.9 99.4 1022.1 4.8 WNW 11.5 NW 0.0 0.1
05:00 2.8 -12.8 99.4 1022.1 7.7 WNW 11.5 WNW 0.0 0.1
05:05 3.4 -12.5 99.5 1022.0 6.1 WNW 11.5 NW 0.0 0.1
05:10 3.4 -12.3 98.5 1022.1 5.4 WNW 11.5 WNW 0.0 0.1
05:15 3.4 -12.5 97.6 1022.1 7.1 WNW 14.2 WNW 0.0 0.1
05:20 3.8 -12.3 96.4 1022.1 7.9 WNW 14.2 NW 0.0 0.1
05:25 4.0 -12.8 93.3 1022.1 7.9 WNW 11.5 WNW 0.0 0.1
05:30 4.1 -14.4 91.1 1022.1 7.3 WNW 11.5 WNW 0.0 0.1
05:35 3.9 -11.8 90.6 1022.0 6.8 WNW 11.5 NW 0.0 0.1
05:40 3.7 -12.1 90.3 1022.0 7.0 WNW 14.2 WNW 0.0 0.1
05:45 3.8 -12.7 91.0 1021.9 8.0 WNW 14.2 WNW 0.0 0.1
05:50 3.9 -12.5 91.4 1022.0 8.3 WNW 14.2 WNW 0.0 0.1
05:55 3.8 -12.7 91.9 1021.9 8.3 WNW 14.2 WNW 0.0 0.2
06:00 3.8 -12.2 92.4 1021.9 9.1 WNW 14.2 WNW 0.0 0.1
06:05 4.0 -12.3 91.0 1021.9 7.4 NW 14.2 WNW 0.0 0.1
06:10 4.0 -12.2 90.8 1022.0 5.8 NW 11.5 NW 0.0 0.1
06:15 3.8 -12.7 91.9 1021.9 6.5 NW 14.2 NW 0.0 0.2
06:20 3.9 -12.2 92.0 1021.9 4.1 NW 11.5 NNW 0.0 0.3
06:25 4.1 -12.3 91.5 1021.9 6.4 WNW 14.2 WNW 0.0 0.8
06:30 4.1 -12.7 91.2 1022.0 8.3 WNW 14.2 NW 0.0 1.6
06:35 4.2 -12.6 91.5 1022.0 7.4 WNW 14.2 NW 0.0 2.9
06:40 4.2 -12.4 91.8 1021.9 7.2 WNW 11.5 NW 0.0 4.7
06:45 4.2 -12.2 91.1 1021.9 6.6 WNW 14.2 WNW 0.0 7.2
06:50 4.2 -12.6 90.8 1022.0 6.3 WNW 14.2 WNW 0.0 10.0
06:55 4.1 -12.7 90.9 1022.0 6.9 WNW 14.2 WNW 0.0 12.9
07:00 3.9 -12.6 91.7 1022.0 6.1 WNW 11.5 WNW 0.0 16.0
07:05 4.1 -12.6 91.7 1021.9 9.0 W 16.9 W 0.0 18.9
07:10 4.2 -12.8 90.9 1021.9 10.6 W 16.9 W 0.0 58.2
07:15 4.1 -12.6 90.3 1021.9 7.5 WNW 14.2 NW 0.0 103.2
07:20 4.4 -12.8 87.2 1021.9 8.0 WNW 16.9 NW 0.0 122.5
07:25 5.0 -12.4 82.7 1021.9 6.6 W 14.2 WNW 0.0 137.4
07:30 5.3 -12.3 79.3 1022.0 8.6 WNW 14.2 W 0.0 152.4
07:35 5.6 -13.4 78.2 1022.0 9.5 NW 16.9 WNW 0.0 167.2
07:40 5.9 -12.6 74.2 1021.9 12.7 WNW 22.3 W 0.0 179.4
07:45 6.1 -14.4 72.9 1022.0 13.5 WNW 22.3 WNW 0.0 189.9
07:50 6.3 -11.6 73.7 1022.0 9.9 NW 19.6 WNW 0.0 199.4
07:55 6.2 -11.4 77.1 1022.0 7.3 NW 14.2 NW 0.0 210.9
08:00 6.4 -11.9 75.7 1022.0 8.5 NW 16.9 WNW 0.0 223.3
08:05 6.6 -12.1 77.4 1022.0 7.6 NW 16.9 WNW 0.0 237.6
08:10 6.5 -11.5 78.1 1022.0 9.5 NNW 16.9 N 0.0 253.1
08:15 6.8 -11.7 75.9 1022.0 8.9 NW 16.9 NNW 0.0 267.6
08:20 7.0 -11.7 76.0 1022.1 10.3 NW 19.6 NNW 0.0 282.5
Màxima 7.1 -11.2 99.6 1024.4 13.5 WNW 22.3 WNW 0.0 282.5
Mínima 2.3 -14.4 72.9 1021.9
Total 0.0